首页
METAR-TAF:

METAR-TAF

机场 :

麦卡伦国际机场

拉斯维加斯, 内华达州, 美国

纬度: 36-04-44N, 经度: 115-09-19W, 海拔: 663米

当前天气观测

该预报发布于25分钟前的04:56 UTC
静风
温度 26°C
湿度 12%
气压 1012 hPa
能見度: 16.1公里
少量云层高于25000英尺

METAR: KLAS 250456Z 00000KT 10SM FEW250 26/M06 A2989 RMK AO2 SLP101 T02611056 $

时间: 22:21 (05:21 UTC)

预报

该预报发布于2小时和29分钟前的02:52 UTC
预报有效从25日的 03点(UTC)到 26日的 06点(UTC)
风速6节,风向东转东北
能見度: 10公里
少量云层高于25000英尺
从 25日的 0400点(UTC)
风速5节,风向北转西北
能見度: 10公里
少量云层高于25000英尺
从 25日的 0900点(UTC)
风速5节,风向多变
能見度: 10公里
少量云层高于25000英尺
从 25日的 1600点(UTC)
风速10节,风向东北
能見度: 10公里
少量云层高于25000英尺

TAF: KLAS 250252Z 2503/2606 06006KT P6SM FEW250 FM250400 34005KT P6SM FEW250 FM250900 VRB05KT P6SM FEW250 FM251600 05010KT P6SM FEW250

超过4000个机场的气象观测和天气预报(METAR&TAF报告)。

可查询的气象台以黄色和红色小点在地图上表示。

将鼠标移到小点上方,可查看气象台名称。

然后点击查看天气观测和预报。

如需切换地图:点击带黑十字的绿色按钮放大地图;点击带横线的绿色按钮缩小地图;或者点击绿色箭头查看邻近地区的地图。


METAR-TAF: